Terminal Aerodrome Forecast
Issued by NWS

Home | Current Version | Previous Version | Text Only | Print | Product List | Glossary On
Versions: 1 2 3 4 5 6 7 8 9 10 11 12 13 14
000
FTUS44 KLIX 252328
TAFGPT
TAF
KGPT 252328Z 2600/2624 15010KT P6SM SKC
     FM260700 17005KT P6SM BKN200
     FM261600 14009KT P6SM BKN250
     FM261900 15013KT P6SM SCT250
     FM262200 15014G23KT P6SM SCT250=

USA.gov is the U.S. government's official web portal to all federal, state and local government web resources and services.